createdAt,value
2023-05-23T00:02:15.785Z,16.98
2023-05-23T00:04:43.074Z,17.00
2023-05-23T00:07:10.193Z,17.15
2023-05-23T00:09:36.860Z,21.83
2023-05-23T00:12:05.670Z,22.88
2023-05-23T00:14:34.008Z,26.05
2023-05-23T00:17:05.382Z,18.77
2023-05-23T00:19:32.306Z,20.77
2023-05-23T00:21:59.542Z,19.15
2023-05-23T00:24:27.221Z,25.23
2023-05-23T00:26:54.848Z,22.95
2023-05-23T00:29:21.661Z,22.58
2023-05-23T00:31:48.825Z,22.48
2023-05-23T00:34:19.883Z,20.38
2023-05-23T00:36:48.070Z,24.35
2023-05-23T00:39:19.806Z,20.15
2023-05-23T00:41:53.121Z,21.45
2023-05-23T00:44:21.714Z,31.27
2023-05-23T00:46:51.694Z,21.17
2023-05-23T00:49:20.402Z,17.83
2023-05-23T00:51:55.985Z,21.85
2023-05-23T00:54:29.623Z,19.75
2023-05-23T00:56:56.433Z,21.92
2023-05-23T00:59:24.702Z,19.33
2023-05-23T01:01:53.674Z,20.25
2023-05-23T01:04:20.663Z,25.85
2023-05-23T01:06:49.129Z,19.92
2023-05-23T01:09:17.387Z,26.60
2023-05-23T01:11:53.468Z,20.17
2023-05-23T01:14:27.244Z,19.48
2023-05-23T01:16:58.509Z,21.20
2023-05-23T01:19:45.458Z,22.50
2023-05-23T01:22:19.057Z,24.75
2023-05-23T01:24:55.105Z,20.67
2023-05-23T01:27:57.313Z,21.70
2023-05-23T01:30:25.523Z,26.70
2023-05-23T01:32:56.368Z,18.40
2023-05-23T01:35:29.026Z,18.02
2023-05-23T01:37:56.135Z,17.05
2023-05-23T01:40:24.829Z,15.23
2023-05-23T01:42:53.324Z,18.23
2023-05-23T01:45:21.526Z,17.73
2023-05-23T01:47:50.497Z,27.88
2023-05-23T01:50:20.909Z,21.65
2023-05-23T01:52:48.178Z,22.27
2023-05-23T01:55:22.551Z,17.85
2023-05-23T01:57:55.482Z,16.02
2023-05-23T02:00:22.503Z,22.45
2023-05-23T02:02:49.461Z,20.58
2023-05-23T02:05:23.304Z,17.13
2023-05-23T02:07:50.051Z,20.48
2023-05-23T02:10:17.624Z,23.27
2023-05-23T02:12:44.325Z,23.58
2023-05-23T02:15:13.125Z,16.98
2023-05-23T02:17:41.517Z,17.75
2023-05-23T02:20:08.968Z,25.08
2023-05-23T02:22:36.190Z,18.85
2023-05-23T02:25:03.719Z,18.90
2023-05-23T02:27:31.527Z,24.60
2023-05-23T02:29:58.415Z,23.27
2023-05-23T02:32:25.234Z,18.63
2023-05-23T02:34:52.660Z,22.17
2023-05-23T02:37:29.832Z,19.55
2023-05-23T02:39:56.852Z,23.52
2023-05-23T02:42:23.567Z,19.02
2023-05-23T02:44:50.426Z,23.13
2023-05-23T02:47:18.015Z,17.55
2023-05-23T02:49:44.742Z,23.13
2023-05-23T02:52:13.822Z,22.38
2023-05-23T02:54:41.098Z,27.75
2023-05-23T02:57:07.841Z,34.80
2023-05-23T02:59:37.160Z,34.55
2023-05-23T03:02:03.971Z,39.53
2023-05-23T03:04:30.755Z,39.17
2023-05-23T03:06:59.648Z,42.65
2023-05-23T03:09:26.928Z,39.80
2023-05-23T03:11:53.661Z,41.08
2023-05-23T03:14:20.357Z,38.45
2023-05-23T03:16:49.300Z,38.50
2023-05-23T03:19:16.314Z,36.55
2023-05-23T03:21:44.287Z,42.88
2023-05-23T03:24:11.797Z,43.08
2023-05-23T03:26:38.477Z,44.65
2023-05-23T03:29:07.230Z,38.75
2023-05-23T03:31:34.063Z,35.50
2023-05-23T03:34:02.545Z,36.20
2023-05-23T03:36:29.647Z,44.42
2023-05-23T03:38:56.343Z,35.53
2023-05-23T03:41:23.207Z,43.53
2023-05-23T03:43:50.225Z,45.35
2023-05-23T03:46:17.027Z,57.22
2023-05-23T03:48:43.991Z,46.15
2023-05-23T03:51:13.368Z,45.90
2023-05-23T03:53:40.939Z,52.67
2023-05-23T03:56:07.702Z,55.60
2023-05-23T03:58:34.504Z,49.00
2023-05-23T04:01:07.009Z,51.40
2023-05-23T04:03:33.995Z,57.60
2023-05-23T04:06:02.385Z,54.67
2023-05-23T04:08:33.883Z,53.20
2023-05-23T04:11:01.957Z,52.47
2023-05-23T04:13:31.915Z,54.60
2023-05-23T04:16:01.501Z,54.83
2023-05-23T04:18:28.538Z,57.08
2023-05-23T04:20:55.215Z,52.33
2023-05-23T04:23:21.922Z,50.58
2023-05-23T04:25:52.575Z,49.53
2023-05-23T04:28:26.703Z,56.67
2023-05-23T04:30:54.380Z,55.47
2023-05-23T04:33:25.037Z,53.80
2023-05-23T04:35:51.938Z,57.90
2023-05-23T04:38:19.357Z,63.35
2023-05-23T04:40:46.094Z,60.55
2023-05-23T04:43:16.408Z,52.53
2023-05-23T04:45:56.056Z,50.67
2023-05-23T04:48:31.425Z,57.38
2023-05-23T04:51:02.192Z,55.45
2023-05-23T04:53:29.610Z,58.10
2023-05-23T04:55:57.716Z,67.43
2023-05-23T04:58:24.580Z,58.85
2023-05-23T05:00:57.875Z,59.47
2023-05-23T05:03:25.152Z,67.53
2023-05-23T05:05:52.388Z,66.82
2023-05-23T05:08:20.126Z,61.72
2023-05-23T05:10:47.004Z,68.35
2023-05-23T05:13:15.072Z,63.67
2023-05-23T05:15:46.369Z,67.10
2023-05-23T05:18:14.650Z,64.90
2023-05-23T05:20:41.767Z,69.55
2023-05-23T05:23:09.911Z,74.30
2023-05-23T05:25:38.277Z,68.53
2023-05-23T05:28:06.000Z,66.10
2023-05-23T05:30:36.536Z,68.88
2023-05-23T05:33:04.506Z,72.18
2023-05-23T05:35:35.347Z,69.60
2023-05-23T05:38:04.884Z,67.93
2023-05-23T05:40:32.791Z,63.90
2023-05-23T05:43:00.038Z,76.13
2023-05-23T05:45:27.717Z,63.03
2023-05-23T05:47:54.659Z,69.63
2023-05-23T05:50:23.621Z,63.40
2023-05-23T05:52:50.572Z,65.15
2023-05-23T05:55:17.497Z,74.72
2023-05-23T05:57:48.135Z,59.60
2023-05-23T06:00:18.963Z,61.75
2023-05-23T06:02:51.546Z,65.37
2023-05-23T06:05:41.702Z,72.72
2023-05-23T06:08:08.530Z,71.10
2023-05-23T06:10:37.985Z,69.93
2023-05-23T06:13:04.875Z,73.32
2023-05-23T06:15:32.899Z,62.97
2023-05-23T06:18:00.308Z,65.28
2023-05-23T06:20:27.092Z,65.90
2023-05-23T06:22:54.938Z,65.68
2023-05-23T06:25:21.853Z,78.50
2023-05-23T06:27:50.036Z,68.07
2023-05-23T06:30:16.888Z,76.38
2023-05-23T06:32:45.475Z,69.97
2023-05-23T06:35:12.388Z,59.35
2023-05-23T06:37:43.433Z,57.88
2023-05-23T06:40:10.994Z,65.88
2023-05-23T06:42:37.634Z,61.63
2023-05-23T06:45:11.969Z,59.63
2023-05-23T06:47:43.840Z,65.70
2023-05-23T06:50:11.009Z,64.07
2023-05-23T06:52:37.843Z,65.45
2023-05-23T06:55:05.482Z,64.72
2023-05-23T06:57:38.035Z,62.08
2023-05-23T07:00:07.425Z,67.78
2023-05-23T07:02:51.950Z,71.38
2023-05-23T07:05:22.167Z,68.53
2023-05-23T07:07:50.934Z,66.28
2023-05-23T07:10:19.805Z,73.60
2023-05-23T07:12:48.531Z,72.82
2023-05-23T07:15:16.607Z,71.32
2023-05-23T07:17:54.666Z,69.30
2023-05-23T07:20:21.700Z,70.40
2023-05-23T07:22:51.745Z,72.85
2023-05-23T07:25:19.272Z,68.70
2023-05-23T07:27:46.033Z,68.75
2023-05-23T07:30:12.944Z,71.55
2023-05-23T07:32:40.262Z,64.78
2023-05-23T07:35:09.069Z,71.68
2023-05-23T07:37:35.806Z,70.95
2023-05-23T07:40:02.691Z,74.88
2023-05-23T07:42:29.470Z,79.95
2023-05-23T07:44:56.150Z,66.65
2023-05-23T07:47:24.441Z,68.47
2023-05-23T07:49:52.354Z,62.38
2023-05-23T07:52:20.935Z,69.18
2023-05-23T07:54:48.375Z,64.65
2023-05-23T07:57:16.946Z,70.40
2023-05-23T07:59:44.442Z,72.85
2023-05-23T08:02:11.655Z,70.78
2023-05-23T08:04:40.453Z,70.28
2023-05-23T08:07:08.895Z,71.20
2023-05-23T08:09:46.085Z,64.15
2023-05-23T08:12:15.957Z,66.15
2023-05-23T08:14:51.730Z,66.38
2023-05-23T08:17:42.435Z,57.88
2023-05-23T08:20:10.278Z,62.40
2023-05-23T08:22:37.584Z,61.20
2023-05-23T08:25:06.048Z,57.65
2023-05-23T08:30:12.223Z,55.45
2023-05-23T08:32:39.074Z,60.42
2023-05-23T08:35:06.548Z,59.70
2023-05-23T08:37:33.259Z,55.65
2023-05-23T08:40:00.108Z,53.90
2023-05-23T08:42:43.487Z,51.95
2023-05-23T08:45:12.223Z,57.50
2023-05-23T08:47:42.451Z,50.28
2023-05-23T08:50:12.483Z,55.22
2023-05-23T08:52:45.123Z,53.03
2023-05-23T08:55:12.783Z,52.28
2023-05-23T08:57:43.785Z,47.60
2023-05-23T09:00:33.476Z,57.72
2023-05-23T09:03:00.682Z,49.47
2023-05-23T09:05:43.808Z,46.30
2023-05-23T09:08:10.775Z,44.03
2023-05-23T09:10:37.903Z,56.88
2023-05-23T09:13:06.317Z,40.75
2023-05-23T09:15:33.112Z,39.38
2023-05-23T09:18:02.206Z,38.47
2023-05-23T09:20:29.835Z,37.00
2023-05-23T09:23:02.913Z,38.75
2023-05-23T09:25:30.799Z,30.27
2023-05-23T09:28:00.098Z,33.17
2023-05-23T09:30:27.379Z,24.63
2023-05-23T09:33:05.730Z,29.25
2023-05-23T09:35:34.012Z,24.35
2023-05-23T09:38:01.030Z,28.63
2023-05-23T09:40:31.945Z,27.80
2023-05-23T09:43:04.960Z,21.95
2023-05-23T09:45:32.583Z,20.23
2023-05-23T09:48:01.720Z,18.92
2023-05-23T09:50:34.148Z,23.67
2023-05-23T09:53:02.408Z,21.52
2023-05-23T09:55:29.124Z,23.67
2023-05-23T09:57:58.659Z,18.52
2023-05-23T10:00:25.781Z,17.77
2023-05-23T10:03:03.474Z,20.55
2023-05-23T10:05:47.997Z,17.60
2023-05-23T10:08:18.316Z,20.52
2023-05-23T10:13:28.630Z,21.13
2023-05-23T10:16:03.184Z,16.52
2023-05-23T10:18:30.344Z,17.02
2023-05-23T10:20:58.116Z,19.30
2023-05-23T10:23:24.986Z,18.95
2023-05-23T10:25:52.499Z,15.55
2023-05-23T10:28:20.166Z,16.40
2023-05-23T10:30:47.850Z,14.57
2023-05-23T10:33:16.901Z,14.00
2023-05-23T10:35:58.647Z,16.33
2023-05-23T10:38:46.047Z,14.20
2023-05-23T10:41:24.027Z,17.13
2023-05-23T10:44:12.646Z,13.77
2023-05-23T10:46:55.351Z,12.75
2023-05-23T10:49:22.768Z,12.73
2023-05-23T10:51:51.416Z,15.90
2023-05-23T10:54:20.377Z,13.88
2023-05-23T10:56:47.145Z,10.80
2023-05-23T10:59:24.197Z,12.68
2023-05-23T11:01:52.416Z,10.73
2023-05-23T11:04:28.463Z,10.73
2023-05-23T11:06:56.809Z,12.73
2023-05-23T11:09:23.759Z,13.30
2023-05-23T11:12:05.356Z,14.93
2023-05-23T11:14:38.309Z,10.73
2023-05-23T11:17:18.626Z,14.90
2023-05-23T11:22:35.435Z,9.02
2023-05-23T11:25:07.243Z,10.70
2023-05-23T11:27:36.305Z,9.68
2023-05-23T11:30:10.045Z,12.63
2023-05-23T11:32:37.671Z,10.80
2023-05-23T11:35:06.325Z,11.05
2023-05-23T11:37:33.349Z,10.77
2023-05-23T11:40:02.058Z,13.30
2023-05-23T11:42:28.803Z,10.82
2023-05-23T11:44:55.540Z,9.38
2023-05-23T11:47:22.341Z,8.75
2023-05-23T11:49:49.064Z,9.40
2023-05-23T11:52:16.054Z,11.75
2023-05-23T11:54:43.511Z,9.73
2023-05-23T11:57:11.292Z,8.43
2023-05-23T11:59:38.657Z,8.88
2023-05-23T12:02:06.864Z,8.02
2023-05-23T12:04:35.769Z,11.45
2023-05-23T12:07:05.969Z,8.15
2023-05-23T12:09:33.027Z,6.15
2023-05-23T12:11:59.759Z,8.70
2023-05-23T12:14:29.097Z,11.48
2023-05-23T12:16:56.069Z,6.40
2023-05-23T12:19:22.950Z,7.65
2023-05-23T12:21:49.834Z,6.88
2023-05-23T12:24:21.315Z,9.00
2023-05-23T12:26:48.636Z,5.35
2023-05-23T12:29:16.370Z,7.90
2023-05-23T12:31:43.357Z,10.48
2023-05-23T12:34:11.587Z,6.18
2023-05-23T12:36:47.893Z,10.85
2023-05-23T12:39:16.224Z,6.97
2023-05-23T12:41:44.260Z,9.65
2023-05-23T12:44:11.599Z,8.95
2023-05-23T12:46:38.309Z,10.73
2023-05-23T12:49:05.855Z,7.20
2023-05-23T12:51:32.568Z,8.38
2023-05-23T12:53:59.592Z,9.05
2023-05-23T12:56:26.685Z,11.32
2023-05-23T12:58:57.140Z,10.13
2023-05-23T13:01:24.515Z,7.75
2023-05-23T13:03:51.249Z,11.02
2023-05-23T13:06:17.998Z,11.52
2023-05-23T13:08:44.722Z,7.30
2023-05-23T13:11:11.520Z,7.85
2023-05-23T13:13:38.809Z,7.35
2023-05-23T13:16:06.003Z,8.57
2023-05-23T13:18:32.646Z,10.50
2023-05-23T13:20:59.386Z,9.63
2023-05-23T13:23:26.437Z,6.32
2023-05-23T13:25:53.287Z,8.10
2023-05-23T13:28:20.084Z,8.02
2023-05-23T13:30:47.430Z,7.28
2023-05-23T13:33:14.520Z,7.90
2023-05-23T13:35:41.617Z,11.30
2023-05-23T13:38:08.672Z,8.63
2023-05-23T13:40:35.410Z,7.68
2023-05-23T13:43:02.057Z,12.30
2023-05-23T13:45:30.176Z,9.38
2023-05-23T13:47:56.869Z,8.40
2023-05-23T13:50:23.668Z,8.10
2023-05-23T13:52:50.410Z,8.95
2023-05-23T13:55:18.603Z,8.35
2023-05-23T13:57:45.989Z,11.00
2023-05-23T14:00:13.274Z,8.25
2023-05-23T14:02:40.030Z,7.63
2023-05-23T14:05:08.167Z,9.75
2023-05-23T14:07:34.937Z,10.93
2023-05-23T14:10:01.780Z,8.30
2023-05-23T14:12:28.446Z,7.75
2023-05-23T14:14:55.193Z,7.18
2023-05-23T14:17:21.879Z,8.32
2023-05-23T14:19:48.841Z,6.15
2023-05-23T14:22:15.533Z,6.65
2023-05-23T14:24:42.530Z,9.60
2023-05-23T14:27:11.094Z,9.25
2023-05-23T14:29:38.647Z,7.82
2023-05-23T14:32:05.727Z,6.28
2023-05-23T14:34:32.670Z,9.30
2023-05-23T14:36:59.422Z,9.82
2023-05-23T14:39:26.170Z,6.07
2023-05-23T14:41:52.997Z,5.10
2023-05-23T14:44:19.921Z,5.57
2023-05-23T14:46:50.251Z,6.97
2023-05-23T14:49:19.869Z,5.80
2023-05-23T14:51:50.357Z,7.22
2023-05-23T14:54:18.302Z,9.30
2023-05-23T14:56:45.087Z,4.57
2023-05-23T14:59:11.916Z,6.70
2023-05-23T15:01:40.382Z,6.63
2023-05-23T15:04:09.288Z,6.22
2023-05-23T15:06:36.346Z,8.43
2023-05-23T15:09:03.406Z,6.00
2023-05-23T15:11:30.174Z,6.78
2023-05-23T15:13:56.951Z,4.55
2023-05-23T15:16:23.758Z,4.60
2023-05-23T15:18:50.573Z,3.38
2023-05-23T15:21:17.348Z,3.60
2023-05-23T15:23:44.013Z,6.38
2023-05-23T15:26:10.809Z,3.72
2023-05-23T15:28:37.473Z,3.55
2023-05-23T15:31:04.558Z,4.05
2023-05-23T15:33:31.268Z,4.68
2023-05-23T15:35:59.434Z,4.15
2023-05-23T15:38:26.198Z,2.92
2023-05-23T15:40:54.734Z,1.50
2023-05-23T15:43:21.428Z,2.75
2023-05-23T15:45:49.869Z,3.60
2023-05-23T15:48:16.795Z,1.80
2023-05-23T15:50:44.146Z,3.70
2023-05-23T15:53:11.127Z,4.88
2023-05-23T15:55:41.272Z,4.03
2023-05-23T15:58:09.601Z,2.28
2023-05-23T16:00:36.450Z,3.88
2023-05-23T16:03:03.489Z,2.58
2023-05-23T16:05:30.310Z,1.92
2023-05-23T16:07:57.185Z,1.50
2023-05-23T16:10:24.784Z,5.15
2023-05-23T16:12:51.753Z,2.25
2023-05-23T16:15:18.786Z,2.38
2023-05-23T16:17:45.941Z,3.30
2023-05-23T16:20:12.860Z,2.67
2023-05-23T16:22:40.626Z,4.35
2023-05-23T16:25:09.254Z,4.00
2023-05-23T16:27:35.980Z,2.83
2023-05-23T16:30:02.929Z,2.83
2023-05-23T16:32:29.689Z,3.13
2023-05-23T16:34:56.425Z,1.75
2023-05-23T16:37:23.577Z,2.80
2023-05-23T16:39:50.450Z,2.10
2023-05-23T16:42:17.978Z,2.65
2023-05-23T16:44:45.295Z,2.40
2023-05-23T16:47:12.119Z,2.00
2023-05-23T16:49:38.954Z,2.03
2023-05-23T16:52:05.945Z,2.80
2023-05-23T16:54:32.696Z,3.08
2023-05-23T16:57:01.831Z,2.60
2023-05-23T16:59:29.878Z,2.13
2023-05-23T17:01:57.020Z,3.15
2023-05-23T17:04:24.002Z,1.95
2023-05-23T17:06:50.833Z,2.40
2023-05-23T17:09:18.287Z,2.25
2023-05-23T17:11:45.262Z,3.00
2023-05-23T17:14:12.814Z,3.42
2023-05-23T17:16:39.617Z,2.72
2023-05-23T17:19:07.557Z,2.45
2023-05-23T17:21:34.316Z,4.10
2023-05-23T17:24:01.077Z,2.65
2023-05-23T17:26:27.835Z,2.58
2023-05-23T17:28:54.526Z,4.20
2023-05-23T17:31:21.475Z,2.45
2023-05-23T17:33:48.183Z,3.05
2023-05-23T17:36:14.972Z,4.32
2023-05-23T17:38:41.977Z,2.40
2023-05-23T17:41:08.731Z,2.65
2023-05-23T17:43:35.355Z,4.18
2023-05-23T17:46:02.124Z,4.72
2023-05-23T17:48:45.839Z,6.57
2023-05-23T17:51:14.440Z,5.80
2023-05-23T17:53:41.639Z,4.15
2023-05-23T17:56:09.418Z,4.82
2023-05-23T17:58:37.525Z,3.78
2023-05-23T18:01:04.950Z,4.32
2023-05-23T18:03:32.180Z,8.60
2023-05-23T18:05:58.895Z,4.63
2023-05-23T18:08:25.749Z,5.05
2023-05-23T18:10:52.591Z,4.90
2023-05-23T18:13:19.320Z,5.85
2023-05-23T18:15:46.028Z,7.60
2023-05-23T18:18:12.888Z,5.85
2023-05-23T18:20:40.143Z,5.63
2023-05-23T18:23:07.482Z,4.43
2023-05-23T18:25:34.365Z,4.47
2023-05-23T18:28:01.977Z,4.68
2023-05-23T18:30:28.924Z,5.85
2023-05-23T18:32:56.220Z,5.97
2023-05-23T18:35:23.220Z,6.93
2023-05-23T18:37:49.988Z,7.78
2023-05-23T18:40:16.790Z,6.30
2023-05-23T18:42:43.609Z,5.93
2023-05-23T18:45:10.756Z,7.13
2023-05-23T18:47:37.746Z,5.95
2023-05-23T18:50:04.696Z,6.88
2023-05-23T18:52:33.542Z,4.63
2023-05-23T18:55:00.474Z,4.47
2023-05-23T18:57:27.233Z,4.80
2023-05-23T18:59:54.173Z,9.55
2023-05-23T19:02:20.923Z,5.28
2023-05-23T19:04:47.801Z,5.35
2023-05-23T19:07:14.646Z,5.30
2023-05-23T19:09:41.392Z,5.63
2023-05-23T19:12:08.173Z,5.28
2023-05-23T19:14:34.900Z,5.53
2023-05-23T19:17:05.613Z,6.85
2023-05-23T19:19:35.178Z,6.00
2023-05-23T19:22:01.922Z,4.83
2023-05-23T19:24:28.606Z,7.40
2023-05-23T19:26:56.251Z,6.25
2023-05-23T19:29:22.986Z,6.07
2023-05-23T19:31:49.867Z,6.05
2023-05-23T19:34:16.700Z,9.32
2023-05-23T19:36:44.160Z,8.27
2023-05-23T19:39:12.445Z,7.28
2023-05-23T19:41:40.697Z,7.05
2023-05-23T19:44:07.610Z,11.25
2023-05-23T19:46:34.407Z,5.78
2023-05-23T19:49:01.497Z,6.68
2023-05-23T19:51:29.068Z,5.38
2023-05-23T19:53:55.876Z,7.32
2023-05-23T19:56:22.950Z,7.05
2023-05-23T19:58:49.635Z,6.97
2023-05-23T20:01:16.461Z,7.40
2023-05-23T20:03:43.317Z,6.40
2023-05-23T20:06:10.176Z,6.13
2023-05-23T20:08:36.916Z,7.78
2023-05-23T20:11:03.636Z,6.95
2023-05-23T20:13:30.493Z,11.50
2023-05-23T20:15:57.305Z,7.68
2023-05-23T20:18:24.054Z,8.18
2023-05-23T20:20:50.917Z,9.60
2023-05-23T20:23:17.686Z,7.03
2023-05-23T20:25:44.387Z,7.88
2023-05-23T20:28:11.125Z,7.05
2023-05-23T20:30:37.720Z,10.73
2023-05-23T20:33:04.660Z,7.82
2023-05-23T20:35:31.322Z,7.65
2023-05-23T20:37:58.592Z,7.47
2023-05-23T20:40:26.957Z,7.00
2023-05-23T20:42:53.736Z,9.00
2023-05-23T20:45:20.489Z,11.40
2023-05-23T20:47:47.455Z,8.38
2023-05-23T20:50:14.958Z,7.35
2023-05-23T20:52:43.067Z,9.50
2023-05-23T20:55:10.852Z,7.93
2023-05-23T20:57:37.910Z,8.80
2023-05-23T21:00:12.705Z,8.73
2023-05-23T21:02:40.869Z,7.22
2023-05-23T21:05:08.702Z,8.55
2023-05-23T21:07:35.546Z,8.32
2023-05-23T21:10:03.307Z,8.20
2023-05-23T21:12:30.097Z,8.52
2023-05-23T21:14:57.106Z,8.13
2023-05-23T21:17:24.064Z,9.95
2023-05-23T21:19:51.149Z,9.40
2023-05-23T21:22:17.925Z,9.63
2023-05-23T21:24:44.555Z,11.13
2023-05-23T21:27:11.731Z,7.63
2023-05-23T21:29:38.402Z,9.82
2023-05-23T21:32:05.348Z,8.02
2023-05-23T21:34:32.060Z,8.63
2023-05-23T21:36:58.737Z,9.05
2023-05-23T21:39:28.780Z,9.43
2023-05-23T21:42:00.445Z,13.27
2023-05-23T21:44:27.105Z,8.68
2023-05-23T21:46:53.843Z,8.45
2023-05-23T21:49:20.618Z,7.10
2023-05-23T21:51:47.410Z,7.00
2023-05-23T21:54:14.132Z,8.63
2023-05-23T21:56:41.145Z,7.30
2023-05-23T21:59:08.213Z,10.50
2023-05-23T22:01:35.121Z,9.48
2023-05-23T22:04:02.015Z,7.82
2023-05-23T22:06:29.109Z,15.15
2023-05-23T22:08:55.931Z,10.13
2023-05-23T22:11:22.681Z,8.70
2023-05-23T22:13:49.485Z,9.75
2023-05-23T22:16:16.245Z,7.90
2023-05-23T22:18:51.602Z,10.75
2023-05-23T22:21:18.968Z,8.18
2023-05-23T22:23:45.999Z,7.68
2023-05-23T22:26:12.862Z,8.52
2023-05-23T22:28:39.701Z,8.20
2023-05-23T22:31:06.681Z,10.50
2023-05-23T22:33:33.432Z,9.75
2023-05-23T22:36:00.192Z,9.27
2023-05-23T22:38:26.892Z,10.88
2023-05-23T22:40:53.700Z,10.20
2023-05-23T22:43:21.878Z,10.18
2023-05-23T22:45:50.221Z,7.13
2023-05-23T22:48:19.299Z,9.18
2023-05-23T22:50:46.763Z,7.85
2023-05-23T22:53:16.663Z,8.75
2023-05-23T22:55:43.510Z,6.53
2023-05-23T22:58:10.477Z,13.63
2023-05-23T23:00:37.474Z,7.85
2023-05-23T23:03:04.559Z,11.35
2023-05-23T23:05:31.559Z,10.35
2023-05-23T23:07:58.244Z,9.85
2023-05-23T23:10:25.096Z,5.32
2023-05-23T23:12:51.764Z,10.88
2023-05-23T23:15:18.537Z,9.48
2023-05-23T23:17:45.242Z,8.10
2023-05-23T23:20:12.891Z,7.60
2023-05-23T23:22:39.911Z,9.75
2023-05-23T23:25:10.581Z,11.50
2023-05-23T23:30:06.613Z,9.23
2023-05-23T23:32:34.312Z,12.02
2023-05-23T23:35:01.508Z,10.52
2023-05-23T23:37:28.241Z,10.43
2023-05-23T23:39:55.016Z,11.90
2023-05-23T23:42:21.715Z,11.23
2023-05-23T23:44:48.588Z,7.57
2023-05-23T23:47:15.417Z,8.00
2023-05-23T23:49:42.353Z,8.23
2023-05-23T23:52:09.433Z,8.48
2023-05-23T23:54:36.174Z,9.10
2023-05-23T23:57:02.928Z,9.35
2023-05-23T23:59:29.670Z,13.82
